Ana Sayfa
METAR-TAF:

METAR-TAF

Havaalanları :

New York, New York, Amerika Birleşik Devletleri

Enlem: 40-42-04N, Boylam: 074-00-32W, yükseklik: 2 m

Güncel hava durumu gözlemi

Rapor saat 08:56 UTC de 37 dakika önce yapıldı.
Rüzgar kuzey/kuzeydoğudan 16 kt ve 22 kt'a kadar ani rüzgarlar
Sıcaklık 8°C
Nem 93%
Basınç 1004 hPa
Görüş mesafesi: 9.7 km
1200 ft yükseklikte çok bulutlu
hafif yağmur, Pus

METAR: KJRB 300856Z AUTO 03016G22KT 6SM -RA BR OVC012 08/07 A2965 RMK AO2 PK WND 04027/0828 SLP039 P0000 60000 T00780067 58005

Saat: 05:33 (09:33 UTC)


TAF: eksik

4.000'den fazla havaalanı için hava durumu gözlemleri ve tahminleri (METAR ve TAF raporları).

Kullanılabilir istasyonlar harita üzerinde sarı ve kırmızı noktalarla gösterilir.

İstasyonun adını görmek için fareyi noktanın üzerinde gezdirin.

Sonrasında hava gözlem ve tahminlerini görmek için tıklayın.

Haritayı değiştirmek için: yaklaştırmak için siyah artı işaretli yeşil düğmeye ve uzaklaştırmak için de eksi işaretli düğmeye hızla tıklayın; bitişik haritalar için yeşil okları kullanın.


METAR-TAF: